Time;durP1;ratioP1;P1;durP2;ratioP2;P2;SDS_P1;SDS_P2;PMS_P1;PMS_P2;Temp;Humidity;BMP_temperature;BMP_pressure;BME280_temperature;BME280_humidity;BME280_pressure;Samples;Min_cycle;Max_cycle;Signal;HPM_P1;HPM_P2
2021/11/06 00:01:32;;;;;;;4.03;3.05;;;13.90;96.70;;;;;;4921759;28;20056;-76
2021/11/06 00:04:01;;;;;;;5.03;3.42;;;13.80;96.70;;;;;;4935809;28;20035;-76
2021/11/06 00:06:29;;;;;;;5.72;3.67;;;13.90;96.70;;;;;;4937549;28;20074;-76
2021/11/06 00:08:57;;;;;;;4.07;3.30;;;13.90;96.70;;;;;;4946068;28;20051;-76
2021/11/06 00:11:26;;;;;;;5.43;3.50;;;13.90;96.70;;;;;;4941176;28;20047;-76
2021/11/06 00:13:57;;;;;;;4.20;3.17;;;13.90;96.70;;;;;;4921522;29;20146;-76
2021/11/06 00:16:25;;;;;;;3.78;3.25;;;13.90;96.70;;;;;;4935000;28;20438;-76
2021/11/06 00:18:53;;;;;;;5.85;3.50;;;13.90;96.70;;;;;;4937299;28;20474;-76
2021/11/06 00:21:22;;;;;;;6.00;3.45;;;13.90;96.70;;;;;;4937304;28;20110;-76
2021/11/06 00:23:50;;;;;;;5.28;3.67;;;13.90;96.70;;;;;;4944261;28;20421;-76
2021/11/06 00:26:18;;;;;;;5.28;3.67;;;13.90;96.70;;;;;;4924707;28;20039;-76
2021/11/06 00:28:46;;;;;;;5.43;3.25;;;13.90;96.70;;;;;;4938521;28;20446;-76
2021/11/06 00:31:16;;;;;;;4.35;3.63;;;13.90;96.70;;;;;;4944645;28;20071;-76
2021/11/06 00:33:44;;;;;;;3.75;2.80;;;13.90;96.70;;;;;;4937102;28;20043;-76
2021/11/06 00:36:12;;;;;;;5.53;3.33;;;14.00;96.70;;;;;;4919188;28;20043;-76
2021/11/06 00:38:41;;;;;;;7.18;4.25;;;13.90;96.70;;;;;;4939586;28;20987;-76
2021/11/06 00:41:11;;;;;;;4.95;3.63;;;14.00;96.70;;;;;;4916955;28;20039;-76
2021/11/06 00:43:39;;;;;;;4.28;2.97;;;14.00;96.70;;;;;;4937341;28;20035;-78
2021/11/06 00:46:07;;;;;;;5.03;3.63;;;14.00;96.70;;;;;;4942634;28;20035;-76
2021/11/06 00:48:37;;;;;;;4.75;3.45;;;13.90;96.70;;;;;;4933522;28;20297;-76
2021/11/06 00:51:07;;;;;;;3.60;3.08;;;13.90;96.70;;;;;;4934900;28;20063;-76
2021/11/06 00:53:35;;;;;;;4.93;3.40;;;13.90;96.70;;;;;;4943645;28;20102;-77
2021/11/06 00:56:03;;;;;;;5.68;3.67;;;13.90;96.70;;;;;;4934630;28;20135;-76
2021/11/06 00:58:32;;;;;;;4.20;3.30;;;13.90;96.70;;;;;;4934377;28;20047;-76
2021/11/06 01:01:00;;;;;;;5.25;3.90;;;13.90;96.70;;;;;;4934643;28;20051;-76
2021/11/06 01:03:28;;;;;;;5.00;3.50;;;13.90;96.70;;;;;;4934610;28;20040;-76
2021/11/06 01:05:59;;;;;;;5.25;3.10;;;13.90;96.70;;;;;;4937199;28;20046;-76
2021/11/06 01:08:27;;;;;;;4.93;3.05;;;13.90;96.70;;;;;;4936307;28;20895;-76
2021/11/06 01:10:55;;;;;;;5.90;3.42;;;13.90;96.70;;;;;;4939174;28;20044;-76
2021/11/06 01:13:23;;;;;;;5.00;3.03;;;13.90;96.70;;;;;;4916633;28;20146;-76
2021/11/06 01:15:51;;;;;;;5.30;3.17;;;13.90;96.70;;;;;;4931213;28;20039;-76
2021/11/06 01:18:20;;;;;;;3.70;2.88;;;13.90;96.70;;;;;;4933529;28;20047;-75
2021/11/06 01:20:48;;;;;;;5.13;3.10;;;13.90;96.70;;;;;;4940773;28;20395;-76
2021/11/06 01:23:17;;;;;;;3.97;3.10;;;13.90;96.70;;;;;;4937043;28;20047;-76
2021/11/06 01:25:46;;;;;;;4.15;3.25;;;13.90;96.70;;;;;;4940506;28;20485;-76
2021/11/06 01:28:14;;;;;;;5.13;3.10;;;13.90;96.70;;;;;;4933406;28;20122;-76
2021/11/06 01:30:42;;;;;;;3.75;2.97;;;13.90;96.70;;;;;;4938732;28;20439;-76
2021/11/06 01:33:11;;;;;;;5.82;2.70;;;13.80;96.70;;;;;;4939560;28;20110;-76
2021/11/06 01:35:39;;;;;;;3.80;2.75;;;13.80;96.70;;;;;;4917169;29;20478;-76
2021/11/06 01:38:07;;;;;;;5.00;2.50;;;13.80;96.70;;;;;;4934594;28;20047;-76
2021/11/06 01:40:37;;;;;;;3.63;2.65;;;13.80;96.70;;;;;;4933061;28;20048;-76
2021/11/06 01:43:05;;;;;;;3.42;2.72;;;13.80;96.70;;;;;;4937086;28;20569;-76
2021/11/06 01:45:33;;;;;;;4.38;3.00;;;13.80;96.70;;;;;;4928645;28;20048;-75
2021/11/06 01:48:01;;;;;;;3.70;2.63;;;13.80;96.70;;;;;;4944539;28;20102;-76
2021/11/06 01:50:29;;;;;;;4.05;2.60;;;13.80;96.70;;;;;;4936055;28;20054;-76
2021/11/06 01:52:57;;;;;;;5.03;2.35;;;13.80;96.70;;;;;;4932975;28;20051;-77
2021/11/06 01:55:25;;;;;;;2.85;1.88;;;13.80;96.70;;;;;;4937821;28;20046;-75
2021/11/06 01:57:55;;;;;;;4.40;2.55;;;13.70;96.70;;;;;;4923322;29;20051;-76
2021/11/06 02:00:25;;;;;;;3.35;2.03;;;13.80;96.70;;;;;;4939467;28;20765;-75
2021/11/06 02:02:53;;;;;;;3.72;2.00;;;13.80;96.70;;;;;;4921057;28;20133;-76
2021/11/06 02:05:21;;;;;;;2.58;2.00;;;13.80;96.70;;;;;;4933482;28;20131;-76
2021/11/06 02:07:49;;;;;;;3.40;2.17;;;13.80;96.70;;;;;;4945223;28;20501;-76
2021/11/06 02:10:18;;;;;;;2.15;1.70;;;13.80;96.70;;;;;;4938509;28;20446;-76
2021/11/06 02:12:47;;;;;;;3.10;1.70;;;13.80;96.70;;;;;;4932438;28;20103;-76
2021/11/06 02:15:18;;;;;;;3.10;1.45;;;13.80;96.70;;;;;;4928601;28;20103;-77
2021/11/06 02:17:46;;;;;;;3.33;2.15;;;13.80;96.70;;;;;;4934089;28;20050;-76
2021/11/06 02:20:15;;;;;;;3.15;1.65;;;13.80;96.70;;;;;;4936449;28;20039;-76
2021/11/06 02:22:45;;;;;;;2.15;1.55;;;13.80;96.70;;;;;;4939918;28;20141;-76
2021/11/06 02:25:14;;;;;;;2.25;1.45;;;13.90;96.70;;;;;;4939123;28;20101;-76
2021/11/06 02:28:02;;;;;;;2.92;1.65;;;13.90;96.70;;;;;;4940658;28;20351;-76
2021/11/06 02:30:30;;;;;;;3.03;1.73;;;13.90;96.70;;;;;;4940746;28;20048;-76
2021/11/06 02:32:58;;;;;;;3.00;1.90;;;13.90;96.70;;;;;;4920982;28;20162;-75
2021/11/06 02:35:26;;;;;;;1.98;1.50;;;13.90;96.70;;;;;;4932188;28;20070;-76
2021/11/06 02:37:57;;;;;;;1.80;1.30;;;13.90;96.70;;;;;;4945525;28;20070;-76
2021/11/06 02:40:25;;;;;;;4.03;1.80;;;13.90;96.70;;;;;;4928082;28;20508;-76
2021/11/06 02:42:53;;;;;;;2.45;1.40;;;13.90;96.70;;;;;;4946305;28;20480;-77
2021/11/06 02:45:21;;;;;;;2.90;2.10;;;14.00;96.70;;;;;;4936682;28;20047;-76
2021/11/06 02:47:49;;;;;;;2.38;1.63;;;13.90;96.70;;;;;;4934535;28;20048;-76
2021/11/06 02:50:17;;;;;;;2.70;1.50;;;14.00;96.70;;;;;;4935008;28;20648;-76
2021/11/06 02:52:45;;;;;;;2.58;1.50;;;14.00;96.70;;;;;;4937441;28;20114;-76
2021/11/06 02:55:15;;;;;;;2.95;1.67;;;14.00;96.70;;;;;;4936011;28;20075;-76
2021/11/06 02:57:43;;;;;;;3.15;1.77;;;14.00;96.70;;;;;;4937678;28;20074;-75
2021/11/06 03:00:12;;;;;;;2.97;1.40;;;14.00;96.70;;;;;;4943720;28;20567;-76
2021/11/06 03:02:40;;;;;;;1.23;1.00;;;14.00;96.70;;;;;;4940960;28;21064;-76
2021/11/06 03:05:10;;;;;;;3.47;1.40;;;14.00;96.70;;;;;;4942686;28;20494;-76
2021/11/06 03:07:38;;;;;;;1.83;1.23;;;14.00;96.70;;;;;;4934404;28;20052;-75
2021/11/06 03:10:09;;;;;;;1.88;1.13;;;14.00;96.70;;;;;;4938213;28;20121;-76
2021/11/06 03:12:40;;;;;;;1.38;0.80;;;14.00;96.70;;;;;;4932134;28;20569;-76
2021/11/06 03:15:08;;;;;;;1.38;0.80;;;14.00;96.70;;;;;;4922533;28;20224;-75
2021/11/06 03:17:36;;;;;;;1.35;0.75;;;14.00;96.70;;;;;;4926269;28;20138;-76
2021/11/06 03:20:05;;;;;;;1.08;0.70;;;14.00;96.70;;;;;;4916058;29;20138;-76
2021/11/06 03:22:33;;;;;;;1.75;0.90;;;14.00;96.70;;;;;;4941648;28;20905;-76
2021/11/06 03:25:02;;;;;;;1.50;0.80;;;14.00;96.70;;;;;;4933621;28;20043;-76
2021/11/06 03:27:30;;;;;;;2.17;0.70;;;14.00;96.70;;;;;;4938617;28;20369;-76
2021/11/06 03:30:00;;;;;;;2.15;0.90;;;13.90;96.70;;;;;;4937817;28;20043;-76
2021/11/06 03:32:28;;;;;;;2.80;1.00;;;13.90;96.70;;;;;;4935311;28;20094;-76
2021/11/06 03:34:56;;;;;;;0.98;0.68;;;13.90;96.70;;;;;;4934449;28;20051;-76
2021/11/06 03:37:24;;;;;;;1.80;0.60;;;13.90;96.70;;;;;;4932370;28;20046;-76
2021/11/06 03:39:53;;;;;;;1.35;0.80;;;13.90;96.70;;;;;;4937026;28;20047;-76
2021/11/06 03:42:21;;;;;;;1.10;0.60;;;13.90;96.70;;;;;;4938163;28;20458;-75
2021/11/06 03:44:48;;;;;;;0.88;0.52;;;13.90;96.70;;;;;;4942067;28;20053;-76
2021/11/06 03:47:18;;;;;;;0.68;0.40;;;13.90;96.70;;;;;;4935672;28;20132;-76
2021/11/06 03:49:46;;;;;;;0.30;0.30;;;13.90;96.70;;;;;;4935240;28;20074;-76
2021/11/06 03:52:14;;;;;;;1.20;0.45;;;13.90;96.70;;;;;;4951131;28;20041;-76
2021/11/06 03:54:42;;;;;;;0.40;0.20;;;13.90;96.70;;;;;;4940282;28;20409;-76
2021/11/06 03:57:10;;;;;;;1.10;0.20;;;13.90;96.70;;;;;;4937209;28;20046;-76
2021/11/06 03:59:38;;;;;;;0.40;0.20;;;13.90;96.70;;;;;;4927353;28;20043;-76
2021/11/06 04:02:06;;;;;;;0.40;0.20;;;13.90;96.70;;;;;;4935002;28;20055;-76
2021/11/06 04:04:35;;;;;;;0.68;0.10;;;13.90;96.70;;;;;;4933563;28;20058;-76
2021/11/06 04:07:04;;;;;;;0.22;0.10;;;13.90;96.70;;;;;;4932753;28;20514;-76
2021/11/06 04:09:31;;;;;;;2.17;0.20;;;13.90;96.70;;;;;;4933365;28;20570;-76
2021/11/06 04:11:59;;;;;;;0.13;0.10;;;13.90;96.70;;;;;;4933567;28;20047;-77
2021/11/06 04:14:27;;;;;;;0.63;0.20;;;13.90;96.70;;;;;;4937483;28;20490;-76
2021/11/06 04:16:56;;;;;;;0.30;0.15;;;13.90;96.70;;;;;;4942098;28;20437;-76
2021/11/06 04:19:24;;;;;;;0.10;0.10;;;13.90;96.70;;;;;;4943040;28;20051;-76
2021/11/06 04:21:54;;;;;;;0.30;0.10;;;13.90;96.70;;;;;;4931892;28;20047;-76
2021/11/06 04:24:22;;;;;;;1.20;0.10;;;13.90;96.70;;;;;;4914498;28;20063;-77
2021/11/06 04:26:50;;;;;;;0.22;0.10;;;13.90;96.70;;;;;;4929905;28;20142;-76
2021/11/06 04:29:23;;;;;;;0.52;0.20;;;13.90;96.70;;;;;;4931075;28;20058;-76
2021/11/06 04:31:56;;;;;;;0.30;0.05;;;13.90;96.70;;;;;;4928394;28;20351;-76
2021/11/06 04:34:24;;;;;;;1.85;0.10;;;13.90;96.70;;;;;;4931726;28;20039;-76
2021/11/06 04:36:53;;;;;;;0.10;0.00;;;13.90;96.70;;;;;;4938855;28;20078;-76
2021/11/06 04:39:21;;;;;;;0.70;0.17;;;13.90;96.70;;;;;;4936863;28;20627;-76
2021/11/06 04:41:50;;;;;;;0.80;0.17;;;13.90;96.70;;;;;;4939436;28;20535;-76
2021/11/06 04:44:19;;;;;;;0.22;0.10;;;13.90;96.70;;;;;;4935117;28;20560;-78
2021/11/06 04:46:47;;;;;;;0.43;0.20;;;13.90;96.70;;;;;;4919394;28;20134;-77
2021/11/06 04:49:15;;;;;;;0.10;0.00;;;13.90;96.70;;;;;;4937970;28;20130;-77
2021/11/06 04:51:44;;;;;;;0.45;0.10;;;13.90;96.70;;;;;;4946436;28;20154;-78
2021/11/06 04:54:13;;;;;;;1.50;0.13;;;13.90;96.70;;;;;;4940716;28;20049;-78
2021/11/06 04:56:42;;;;;;;1.77;0.50;;;13.90;96.70;;;;;;4946230;28;20038;-77
2021/11/06 04:59:10;;;;;;;0.10;0.10;;;14.00;96.70;;;;;;4929099;28;20047;-78
2021/11/06 05:01:38;;;;;;;0.32;0.20;;;13.90;96.70;;;;;;4939337;28;20091;-78
2021/11/06 05:04:06;;;;;;;0.85;0.25;;;13.90;96.70;;;;;;4919912;28;20074;-77
2021/11/06 05:06:34;;;;;;;2.00;0.25;;;13.90;96.70;;;;;;4935653;28;20043;-78
2021/11/06 05:09:02;;;;;;;0.68;0.20;;;13.90;96.70;;;;;;4933099;28;20050;-78
2021/11/06 05:11:31;;;;;;;1.13;0.25;;;13.90;96.70;;;;;;4939731;28;20228;-78
2021/11/06 05:13:59;;;;;;;1.40;0.32;;;13.90;96.70;;;;;;4939221;28;20044;-78
2021/11/06 05:16:27;;;;;;;0.30;0.15;;;13.90;96.70;;;;;;4942308;28;20347;-77
2021/11/06 05:18:55;;;;;;;0.93;0.40;;;13.90;96.70;;;;;;4933783;28;20056;-78
2021/11/06 05:21:24;;;;;;;0.82;0.32;;;13.90;96.70;;;;;;4943584;28;20308;-77
2021/11/06 05:23:52;;;;;;;1.27;0.20;;;13.90;96.70;;;;;;4937110;28;20046;-78
2021/11/06 05:26:19;;;;;;;1.48;0.22;;;13.90;96.70;;;;;;4937762;28;20091;-77
2021/11/06 05:28:50;;;;;;;0.20;0.20;;;13.90;96.70;;;;;;4937527;28;20046;-77
2021/11/06 05:31:21;;;;;;;0.35;0.20;;;13.90;96.70;;;;;;4927546;28;20043;-78
2021/11/06 05:33:49;;;;;;;1.45;0.20;;;13.90;96.70;;;;;;4932734;28;20429;-77
2021/11/06 05:36:17;;;;;;;0.70;0.20;;;13.90;96.70;;;;;;4937751;28;20495;-78
2021/11/06 05:38:45;;;;;;;0.55;0.30;;;13.90;96.70;;;;;;4928420;28;20046;-78
2021/11/06 05:41:15;;;;;;;1.00;0.30;;;13.90;96.70;;;;;;4931372;28;20040;-76
2021/11/06 05:43:44;;;;;;;0.60;0.20;;;13.90;96.70;;;;;;4939202;28;20565;-78
2021/11/06 05:46:14;;;;;;;0.40;0.30;;;13.90;96.70;;;;;;4937526;28;20570;-77
2021/11/06 05:48:42;;;;;;;1.17;0.17;;;13.90;96.70;;;;;;4940850;28;20469;-78
2021/11/06 05:51:13;;;;;;;1.58;0.20;;;13.90;96.70;;;;;;4934513;28;20581;-78
2021/11/06 05:53:42;;;;;;;1.17;0.40;;;13.90;96.70;;;;;;4932437;28;20574;-78
2021/11/06 05:56:10;;;;;;;0.90;0.22;;;13.90;96.70;;;;;;4926576;28;20497;-77
2021/11/06 05:58:39;;;;;;;0.82;0.40;;;13.90;96.70;;;;;;4943683;28;20129;-78
2021/11/06 06:01:07;;;;;;;0.88;0.22;;;13.90;96.70;;;;;;4933156;28;20118;-79
2021/11/06 06:03:37;;;;;;;2.15;0.30;;;13.90;96.70;;;;;;4928063;28;20379;-78
2021/11/06 06:06:06;;;;;;;0.63;0.25;;;13.90;96.70;;;;;;4937817;28;20043;-77
2021/11/06 06:08:35;;;;;;;1.52;0.20;;;14.00;96.70;;;;;;4936624;28;20048;-78
2021/11/06 06:11:03;;;;;;;1.17;0.28;;;14.00;96.70;;;;;;4940236;28;20438;-78
2021/11/06 06:13:32;;;;;;;0.70;0.20;;;14.00;96.70;;;;;;4923169;29;20497;-78
2021/11/06 06:16:00;;;;;;;1.45;0.17;;;14.00;96.70;;;;;;4937952;28;20043;-76
2021/11/06 06:18:29;;;;;;;0.55;0.40;;;14.00;96.70;;;;;;4940980;28;20142;-76
2021/11/06 06:20:58;;;;;;;0.40;0.15;;;14.00;96.70;;;;;;4938689;28;20067;-76
2021/11/06 06:23:27;;;;;;;0.80;0.20;;;14.10;96.70;;;;;;4940121;28;20127;-76
2021/11/06 06:25:56;;;;;;;2.08;0.30;;;14.10;96.70;;;;;;4937088;28;20051;-76
2021/11/06 06:28:24;;;;;;;0.40;0.30;;;14.10;96.70;;;;;;4916531;28;20075;-75
2021/11/06 06:30:53;;;;;;;0.55;0.25;;;14.10;96.70;;;;;;4932834;28;20527;-75
2021/11/06 06:33:21;;;;;;;0.65;0.20;;;14.10;96.70;;;;;;4917297;28;20513;-76
2021/11/06 06:35:50;;;;;;;1.83;0.30;;;14.20;96.70;;;;;;4938191;28;20053;-75
2021/11/06 06:38:19;;;;;;;1.58;0.20;;;14.20;96.70;;;;;;4921481;28;20046;-79
2021/11/06 06:40:48;;;;;;;0.35;0.20;;;14.20;96.70;;;;;;4932869;28;20039;-81
2021/11/06 06:43:17;;;;;;;1.50;0.40;;;14.20;96.70;;;;;;4936355;28;20110;-79
2021/11/06 06:45:45;;;;;;;1.17;0.20;;;14.20;96.70;;;;;;4932811;28;20042;-79
2021/11/06 06:48:13;;;;;;;0.68;0.20;;;14.20;96.70;;;;;;4925438;28;20061;-81
2021/11/06 06:50:46;;;;;;;0.30;0.20;;;14.30;96.70;;;;;;4938720;28;20516;-80
2021/11/06 06:53:16;;;;;;;0.63;0.20;;;14.20;96.70;;;;;;4942339;28;20079;-82
2021/11/06 06:55:46;;;;;;;1.30;0.25;;;14.30;96.70;;;;;;4928345;28;20046;-78
2021/11/06 06:58:15;;;;;;;2.00;0.50;;;14.30;96.70;;;;;;4932472;28;20316;-78
2021/11/06 07:00:44;;;;;;;0.20;0.20;;;14.20;96.70;;;;;;4926657;28;20581;-79
2021/11/06 07:03:12;;;;;;;1.02;0.30;;;14.30;96.70;;;;;;4926018;28;21941;-77
2021/11/06 07:05:41;;;;;;;0.55;0.28;;;14.30;96.70;;;;;;4936769;28;20485;-79
2021/11/06 07:08:09;;;;;;;1.55;0.30;;;14.40;96.70;;;;;;4936034;28;20160;-79
2021/11/06 07:10:38;;;;;;;1.33;0.30;;;14.40;96.70;;;;;;4926382;28;20051;-79
2021/11/06 07:13:08;;;;;;;0.63;0.20;;;14.40;96.70;;;;;;4941291;28;20435;-78
2021/11/06 07:15:37;;;;;;;0.50;0.30;;;14.40;96.70;;;;;;4930303;28;20078;-78
2021/11/06 07:18:05;;;;;;;1.20;0.30;;;14.30;96.70;;;;;;4936204;28;20150;-78
2021/11/06 07:20:34;;;;;;;2.08;0.45;;;14.30;96.70;;;;;;4931906;29;20121;-80
2021/11/06 07:23:02;;;;;;;1.60;0.30;;;14.30;96.70;;;;;;4944975;28;20042;-78
2021/11/06 07:25:31;;;;;;;1.42;0.50;;;14.30;96.70;;;;;;4940461;28;20055;-79
2021/11/06 07:27:59;;;;;;;0.88;0.40;;;14.40;96.70;;;;;;4939794;28;20050;-78
2021/11/06 07:30:34;;;;;;;0.65;0.30;;;14.40;96.70;;;;;;4940288;28;20059;-78
2021/11/06 07:33:03;;;;;;;1.50;0.30;;;14.40;96.70;;;;;;4937856;28;20125;-78
2021/11/06 07:35:31;;;;;;;0.52;0.30;;;14.50;96.70;;;;;;4937893;28;20115;-78
2021/11/06 07:38:00;;;;;;;0.50;0.30;;;14.60;96.70;;;;;;4945495;28;20043;-77
2021/11/06 07:40:28;;;;;;;2.08;0.47;;;14.70;96.70;;;;;;4943248;28;20118;-77
2021/11/06 07:42:57;;;;;;;0.55;0.30;;;14.80;96.70;;;;;;4932516;28;20593;-79
2021/11/06 07:45:25;;;;;;;1.25;0.30;;;14.90;96.70;;;;;;4935008;28;20067;-80
2021/11/06 07:47:55;;;;;;;1.45;0.32;;;15.00;96.70;;;;;;4940972;28;20082;-80
2021/11/06 07:50:24;;;;;;;1.42;0.55;;;14.90;96.70;;;;;;4939505;28;20043;-82
2021/11/06 07:52:52;;;;;;;3.28;0.70;;;15.00;96.70;;;;;;4924846;28;20044;-79
2021/11/06 07:55:21;;;;;;;1.60;0.50;;;15.00;96.70;;;;;;4951890;28;20517;-78
2021/11/06 07:57:49;;;;;;;1.92;0.52;;;15.00;96.70;;;;;;4933548;28;20035;-78
2021/11/06 08:00:18;;;;;;;1.42;0.65;;;15.00;96.70;;;;;;4939652;28;20043;-78
2021/11/06 08:02:47;;;;;;;3.05;0.88;;;15.10;96.70;;;;;;4941842;28;20161;-80
2021/11/06 08:05:18;;;;;;;1.25;0.85;;;15.20;96.70;;;;;;4937242;28;20055;-78
2021/11/06 08:07:47;;;;;;;1.55;0.50;;;15.40;96.70;;;;;;4944299;28;20061;-79
2021/11/06 08:10:16;;;;;;;2.72;0.50;;;15.50;96.70;;;;;;4943605;28;20046;-78
2021/11/06 08:12:44;;;;;;;1.30;0.63;;;15.50;96.70;;;;;;4925105;28;20078;-84
2021/11/06 08:15:15;;;;;;;2.03;0.65;;;15.40;96.70;;;;;;4923414;29;20051;-82
2021/11/06 08:17:44;;;;;;;3.10;0.52;;;15.30;96.70;;;;;;4939356;28;20051;-77
2021/11/06 08:20:12;;;;;;;3.67;0.50;;;15.30;96.70;;;;;;4910927;28;20047;-76
2021/11/06 08:22:42;;;;;;;0.93;0.50;;;15.30;96.70;;;;;;4936916;28;20056;-76
2021/11/06 08:25:16;;;;;;;2.55;0.40;;;15.30;96.70;;;;;;4935842;28;20066;-74
2021/11/06 08:27:46;;;;;;;2.05;0.70;;;15.20;96.70;;;;;;4924101;29;20486;-75
2021/11/06 08:30:15;;;;;;;2.22;0.57;;;15.10;96.70;;;;;;4935865;28;20121;-75
2021/11/06 08:32:44;;;;;;;1.33;0.45;;;15.00;96.70;;;;;;4935662;28;20051;-76
2021/11/06 08:35:13;;;;;;;1.20;0.52;;;15.00;96.70;;;;;;4930262;28;20271;-77
2021/11/06 08:37:44;;;;;;;1.13;0.47;;;14.90;96.70;;;;;;4932402;28;20487;-77
2021/11/06 08:40:13;;;;;;;2.45;0.45;;;14.90;96.70;;;;;;4928773;28;20053;-78
2021/11/06 08:42:42;;;;;;;0.75;0.40;;;14.90;96.70;;;;;;4916287;28;20106;-78
2021/11/06 08:45:13;;;;;;;1.77;0.45;;;14.80;96.70;;;;;;4934897;28;20502;-78
2021/11/06 08:47:42;;;;;;;1.08;0.50;;;14.80;96.70;;;;;;4931938;28;20071;-77
2021/11/06 08:50:13;;;;;;;1.42;0.45;;;14.90;96.70;;;;;;4932508;28;20048;-78
2021/11/06 08:52:43;;;;;;;1.65;0.55;;;14.90;96.70;;;;;;4932284;28;20043;-80
2021/11/06 08:55:13;;;;;;;2.55;0.60;;;14.90;96.70;;;;;;4932458;28;20452;-80
2021/11/06 08:57:43;;;;;;;2.50;0.77;;;14.90;96.70;;;;;;4935112;28;20050;-81
2021/11/06 09:00:15;;;;;;;1.23;0.30;;;15.00;96.70;;;;;;4935142;28;20140;-79
2021/11/06 09:02:43;;;;;;;1.35;0.60;;;15.20;96.70;;;;;;4917670;28;20044;-80
2021/11/06 09:05:12;;;;;;;1.17;0.60;;;15.20;96.70;;;;;;4948248;28;20047;-89
2021/11/06 09:07:42;;;;;;;1.88;0.68;;;15.30;96.70;;;;;;4935973;28;20130;-79
2021/11/06 09:10:12;;;;;;;4.25;2.10;;;15.40;96.70;;;;;;4935181;28;20047;-79
2021/11/06 09:12:41;;;;;;;1.60;0.63;;;15.40;96.70;;;;;;4935323;28;20059;-79
2021/11/06 09:15:10;;;;;;;1.83;0.60;;;15.30;96.70;;;;;;4940236;28;20134;-79
2021/11/06 09:17:39;;;;;;;1.15;0.60;;;15.30;96.70;;;;;;4922612;29;20062;-78
2021/11/06 09:20:09;;;;;;;1.25;0.52;;;15.30;96.70;;;;;;4939596;28;20058;-77
2021/11/06 09:22:38;;;;;;;2.70;0.88;;;15.40;96.70;;;;;;4935916;28;20051;-77
2021/11/06 09:25:09;;;;;;;2.25;0.50;;;15.40;96.70;;;;;;4935388;28;20068;-78
2021/11/06 09:27:39;;;;;;;2.05;0.57;;;15.60;96.70;;;;;;4941267;28;20510;-79
2021/11/06 09:30:13;;;;;;;1.08;0.40;;;15.70;96.70;;;;;;4931423;28;20465;-79
2021/11/06 09:32:45;;;;;;;2.80;0.47;;;15.70;96.70;;;;;;4925868;28;20122;-80
2021/11/06 09:35:15;;;;;;;1.25;0.52;;;15.70;96.70;;;;;;4937898;28;20052;-80
2021/11/06 09:37:45;;;;;;;1.38;0.60;;;15.80;96.70;;;;;;4916819;28;20048;-79
2021/11/06 09:40:15;;;;;;;4.82;0.75;;;15.90;96.70;;;;;;4917453;28;20117;-80
2021/11/06 09:42:43;;;;;;;3.53;0.63;;;15.90;96.70;;;;;;4935546;28;20139;-79
2021/11/06 09:45:14;;;;;;;1.05;0.50;;;16.00;96.70;;;;;;4932709;28;20051;-79
2021/11/06 09:47:43;;;;;;;1.42;0.50;;;16.10;96.70;;;;;;4939123;28;20062;-79
2021/11/06 09:50:12;;;;;;;2.28;0.77;;;16.10;96.70;;;;;;4933126;28;20052;-79
2021/11/06 09:52:41;;;;;;;3.17;0.85;;;16.20;96.70;;;;;;4940955;28;20122;-78
2021/11/06 09:55:09;;;;;;;1.38;0.50;;;16.30;96.70;;;;;;4938032;28;20040;-78
2021/11/06 09:57:39;;;;;;;2.17;0.63;;;16.20;96.70;;;;;;4925656;28;20047;-78
2021/11/06 10:00:10;;;;;;;3.60;0.65;;;16.20;96.70;;;;;;4911086;28;20055;-78
2021/11/06 10:02:41;;;;;;;3.40;0.65;;;16.30;96.70;;;;;;4936318;28;20043;-79
2021/11/06 10:05:10;;;;;;;2.42;0.63;;;16.40;96.70;;;;;;4939311;28;20039;-79
2021/11/06 10:07:39;;;;;;;5.07;2.35;;;16.40;96.70;;;;;;4931012;28;20514;-79
2021/11/06 10:10:12;;;;;;;3.42;0.93;;;16.50;96.70;;;;;;4933142;28;20421;-78
2021/11/06 10:12:50;;;;;;;1.73;0.65;;;16.50;96.70;;;;;;4930252;28;20040;-79
2021/11/06 10:15:20;;;;;;;1.88;0.80;;;16.60;96.70;;;;;;4916924;29;20178;-81
2021/11/06 10:17:49;;;;;;;3.63;0.60;;;16.60;96.70;;;;;;4936283;28;20516;-78
2021/11/06 10:20:28;;;;;;;1.35;0.45;;;16.60;96.70;;;;;;4919534;28;20368;-79
2021/11/06 10:22:58;;;;;;;1.33;0.50;;;16.70;96.70;;;;;;4942830;28;20050;-80
2021/11/06 10:25:31;;;;;;;2.42;0.63;;;16.70;96.70;;;;;;4927225;28;20058;-80
2021/11/06 10:28:03;;;;;;;3.42;0.60;;;16.80;96.70;;;;;;4932657;28;20443;-80
2021/11/06 10:30:34;;;;;;;4.65;0.90;;;16.80;96.70;;;;;;4936194;28;20087;-80
2021/11/06 10:33:06;;;;;;;2.10;0.55;;;16.80;96.70;;;;;;4936697;28;20047;-80
2021/11/06 10:35:37;;;;;;;1.83;0.50;;;16.80;96.70;;;;;;4938623;28;20067;-79
2021/11/06 10:38:08;;;;;;;4.25;0.88;;;16.70;96.70;;;;;;4949617;28;20117;-78
2021/11/06 10:40:40;;;;;;;1.35;0.65;;;16.70;96.70;;;;;;4934773;28;20279;-77
2021/11/06 10:43:11;;;;;;;1.50;0.60;;;16.60;96.70;;;;;;4943177;28;20084;-78
2021/11/06 10:45:45;;;;;;;1.95;0.70;;;16.70;96.70;;;;;;4917227;28;20076;-76
2021/11/06 10:48:16;;;;;;;2.60;0.43;;;16.70;96.70;;;;;;4934466;28;20211;-77
2021/11/06 10:50:54;;;;;;;2.42;0.52;;;16.70;96.70;;;;;;4937394;28;20146;-78
2021/11/06 10:53:44;;;;;;;1.85;0.60;;;16.70;96.70;;;;;;4939983;28;20046;-77
2021/11/06 10:56:39;;;;;;;2.40;0.60;;;16.70;96.70;;;;;;4939051;28;20043;-77
2021/11/06 10:59:11;;;;;;;1.80;0.50;;;16.80;96.70;;;;;;4922102;28;20056;-79
2021/11/06 11:01:41;;;;;;;2.03;0.70;;;16.90;96.70;;;;;;4941433;28;20046;-78
2021/11/06 11:04:11;;;;;;;2.38;0.73;;;16.90;96.70;;;;;;4943502;28;20062;-79
2021/11/06 11:06:43;;;;;;;2.05;0.45;;;16.90;96.70;;;;;;4941989;28;20050;-79
2021/11/06 11:09:14;;;;;;;1.25;0.57;;;16.90;96.70;;;;;;4937653;28;20129;-79
2021/11/06 11:11:43;;;;;;;1.23;0.50;;;17.00;96.70;;;;;;4938724;28;20046;-80
2021/11/06 11:14:14;;;;;;;1.38;0.70;;;16.90;96.70;;;;;;4933548;28;20831;-79
2021/11/06 11:16:50;;;;;;;1.52;0.57;;;16.90;96.70;;;;;;4942403;28;20048;-77
2021/11/06 11:19:29;;;;;;;11.73;8.20;;;17.10;96.70;;;;;;4926842;28;20405;-81
2021/11/06 11:21:58;;;;;;;2.30;1.77;;;17.10;96.70;;;;;;4941728;28;20056;-80
2021/11/06 11:24:26;;;;;;;2.33;0.90;;;17.20;96.70;;;;;;4930960;28;20050;-76
2021/11/06 11:26:57;;;;;;;2.15;0.40;;;17.10;96.70;;;;;;4934798;28;20044;-78
2021/11/06 11:29:36;;;;;;;1.75;0.50;;;17.10;96.70;;;;;;4927790;28;20103;-86
2021/11/06 11:32:05;;;;;;;1.98;0.65;;;17.20;96.70;;;;;;4937590;28;20513;-78
2021/11/06 11:34:33;;;;;;;1.02;0.50;;;17.40;96.70;;;;;;4938558;28;20067;-78
2021/11/06 11:37:02;;;;;;;2.88;0.80;;;17.40;96.70;;;;;;4936140;28;20066;-79
2021/11/06 11:39:31;;;;;;;2.10;1.08;;;17.50;96.70;;;;;;4930232;28;20047;-77
2021/11/06 11:42:24;;;;;;;2.17;1.10;;;17.50;96.70;;;;;;4944762;28;20047;-78
2021/11/06 11:45:18;;;;;;;2.05;0.50;;;17.40;96.70;;;;;;4930087;28;20383;-77
2021/11/06 11:47:52;;;;;;;1.30;0.55;;;17.50;96.70;;;;;;4930258;28;20055;-78
2021/11/06 11:50:30;;;;;;;3.45;0.63;;;17.50;96.70;;;;;;4936616;28;20043;-75
2021/11/06 11:53:00;;;;;;;2.45;0.63;;;17.60;96.70;;;;;;4938149;28;20050;-75
2021/11/06 11:55:35;;;;;;;0.85;0.52;;;17.70;96.70;;;;;;4942947;28;20050;-77
2021/11/06 11:58:09;;;;;;;5.32;0.60;;;17.70;96.70;;;;;;4934511;28;20043;-76
2021/11/06 12:00:42;;;;;;;0.82;0.40;;;17.80;96.70;;;;;;4936967;28;20043;-78
2021/11/06 12:03:10;;;;;;;2.00;0.40;;;17.60;96.70;;;;;;4939764;28;20106;-80
2021/11/06 12:05:41;;;;;;;3.00;0.68;;;17.70;96.70;;;;;;4933333;28;20047;-77
2021/11/06 12:08:34;;;;;;;1.83;0.50;;;17.80;96.70;;;;;;4936979;28;20090;-74
2021/11/06 12:11:17;;;;;;;1.23;0.50;;;17.70;96.70;;;;;;4929761;28;20604;-77
2021/11/06 12:13:49;;;;;;;1.73;0.50;;;17.70;96.70;;;;;;4941013;28;20138;-78
2021/11/06 12:16:25;;;;;;;1.30;0.60;;;17.80;96.70;;;;;;4936992;28;20514;-76
2021/11/06 12:18:59;;;;;;;1.83;0.75;;;17.90;96.70;;;;;;4943900;28;20505;-74
2021/11/06 12:21:39;;;;;;;1.42;0.45;;;18.00;96.70;;;;;;4928970;28;20399;-75
2021/11/06 12:24:22;;;;;;;2.35;0.52;;;18.00;96.70;;;;;;4934525;28;20507;-76
2021/11/06 12:26:53;;;;;;;1.23;0.50;;;18.00;96.70;;;;;;4938834;28;20050;-78
2021/11/06 12:29:33;;;;;;;3.13;0.50;;;18.10;96.70;;;;;;4942804;28;20048;-75
2021/11/06 12:32:22;;;;;;;1.65;1.00;;;18.20;96.70;;;;;;4936224;28;20047;-77
2021/11/06 12:34:52;;;;;;;1.90;0.70;;;18.20;96.70;;;;;;4934271;28;20675;-75
2021/11/06 12:37:59;;;;;;;1.55;0.50;;;18.20;96.70;;;;;;4938089;28;20067;-77
2021/11/06 12:40:38;;;;;;;2.08;0.65;;;18.30;96.70;;;;;;4933335;28;20520;-77
2021/11/06 12:43:30;;;;;;;1.85;0.40;;;18.20;96.70;;;;;;4914847;28;20054;-77
2021/11/06 12:46:13;;;;;;;1.98;0.60;;;18.20;96.70;;;;;;4922945;28;20678;-75
2021/11/06 12:48:45;;;;;;;3.72;0.88;;;18.10;96.70;;;;;;4934885;28;20100;-76
2021/11/06 12:51:16;;;;;;;2.33;0.70;;;18.00;96.70;;;;;;4940137;28;20130;-76
2021/11/06 12:53:47;;;;;;;2.60;1.15;;;17.80;96.70;;;;;;4938596;28;20078;-77
2021/11/06 12:56:17;;;;;;;3.17;1.20;;;17.60;96.70;;;;;;4933941;28;20058;-77
2021/11/06 12:58:59;;;;;;;2.33;0.90;;;17.40;96.70;;;;;;4922203;28;20048;-75
2021/11/06 13:01:29;;;;;;;2.88;0.90;;;17.30;96.70;;;;;;4925812;29;20058;-76
2021/11/06 13:04:00;;;;;;;1.90;0.90;;;17.20;96.70;;;;;;4939615;28;20131;-76